Time;durP1;ratioP1;P1;durP2;ratioP2;P2;SDS_P1;SDS_P2;PMS_P1;PMS_P2;Temp;Humidity;BMP_temperature;BMP_pressure;BME280_temperature;BME280_humidity;BME280_pressure;Samples;Min_cycle;Max_cycle;Signal;HPM_P1;HPM_P2
2021/10/15 00:00:53;;;;;;;4.70;2.62;;;24.40;99.90;;;;;;1918556;72;21207;-81
2021/10/15 00:03:24;;;;;;;5.17;2.20;;;24.40;99.90;;;;;;1891418;73;21175;-81
2021/10/15 00:05:55;;;;;;;5.85;2.40;;;24.40;99.90;;;;;;1898288;73;21562;-79
2021/10/15 00:08:26;;;;;;;6.42;2.67;;;24.40;99.90;;;;;;1926087;73;21656;-81
2021/10/15 00:10:57;;;;;;;12.93;7.25;;;24.40;99.90;;;;;;1931685;73;21153;-81
2021/10/15 00:13:28;;;;;;;20.65;12.63;;;24.40;99.90;;;;;;1901106;74;21231;-81
2021/10/15 00:15:58;;;;;;;7.95;5.05;;;24.40;99.90;;;;;;1899215;73;21224;-82
2021/10/15 00:18:29;;;;;;;24.00;13.68;;;24.40;99.90;;;;;;1910386;73;21123;-80
2021/10/15 00:21:00;;;;;;;11.55;6.72;;;24.40;99.90;;;;;;1920690;73;21180;-81
2021/10/15 00:23:31;;;;;;;27.32;17.37;;;24.40;99.90;;;;;;1890340;74;21176;-81
2021/10/15 00:26:02;;;;;;;24.87;14.50;;;24.40;99.90;;;;;;1890658;73;21155;-81
2021/10/15 00:28:33;;;;;;;14.45;9.55;;;24.40;99.90;;;;;;1874345;74;21133;-81
2021/10/15 00:31:04;;;;;;;21.00;10.28;;;24.40;99.90;;;;;;1882921;73;21596;-81
2021/10/15 00:33:35;;;;;;;19.48;12.25;;;24.50;99.90;;;;;;1905859;73;22022;-80
2021/10/15 00:36:06;;;;;;;13.85;8.55;;;24.50;99.90;;;;;;1901082;73;21133;-80
2021/10/15 00:38:36;;;;;;;7.67;4.50;;;24.50;99.90;;;;;;1900294;74;21167;-80
2021/10/15 00:41:11;;;;;;;8.13;4.92;;;24.50;99.90;;;;;;1893135;74;21187;-81
2021/10/15 00:43:46;;;;;;;9.03;5.12;;;24.50;99.90;;;;;;1872123;74;21196;-81
2021/10/15 00:46:16;;;;;;;9.48;5.20;;;24.60;99.90;;;;;;1884378;74;21162;-81
2021/10/15 00:48:48;;;;;;;12.82;3.58;;;24.60;99.90;;;;;;1886587;74;21118;-80
2021/10/15 00:51:19;;;;;;;9.05;3.00;;;24.60;99.90;;;;;;1901425;74;21698;-72
2021/10/15 00:53:52;;;;;;;7.97;3.17;;;24.50;99.90;;;;;;1888275;73;21128;-73
2021/10/15 00:56:24;;;;;;;6.65;3.75;;;24.60;99.90;;;;;;1902241;73;21219;-73
2021/10/15 00:58:55;;;;;;;8.63;3.05;;;24.60;99.90;;;;;;1878824;74;21156;-73
2021/10/15 01:01:26;;;;;;;4.28;2.67;;;24.60;99.90;;;;;;1877810;74;21129;-73
2021/10/15 01:03:59;;;;;;;4.12;2.25;;;24.60;99.90;;;;;;1866916;74;21141;-74
2021/10/15 01:06:32;;;;;;;4.45;2.50;;;24.60;99.90;;;;;;1912109;72;21177;-74
2021/10/15 01:09:05;;;;;;;4.62;3.60;;;24.60;99.90;;;;;;1946476;73;21113;-73
2021/10/15 01:11:36;;;;;;;4.35;2.87;;;24.70;99.90;;;;;;1908979;74;21213;-74
2021/10/15 01:14:08;;;;;;;4.62;2.72;;;24.60;99.90;;;;;;1910578;74;21060;-74
2021/10/15 01:16:39;;;;;;;7.22;3.27;;;24.70;99.90;;;;;;1889860;74;21155;-75
2021/10/15 01:19:11;;;;;;;8.63;3.10;;;24.70;99.90;;;;;;1907729;73;21094;-73
2021/10/15 01:21:44;;;;;;;5.60;3.20;;;24.80;99.90;;;;;;1939273;73;21090;-73
2021/10/15 01:24:17;;;;;;;5.53;2.90;;;24.80;99.90;;;;;;1900909;74;21180;-73
2021/10/15 01:26:47;;;;;;;6.15;2.60;;;24.80;99.90;;;;;;1888747;74;22004;-73
2021/10/15 01:29:18;;;;;;;4.30;2.47;;;24.80;99.90;;;;;;1921794;73;21715;-73
2021/10/15 01:31:49;;;;;;;5.17;2.35;;;24.80;99.90;;;;;;1912171;73;21227;-73
2021/10/15 01:34:19;;;;;;;6.30;3.00;;;24.80;99.90;;;;;;1925628;73;21232;-73
2021/10/15 01:36:50;;;;;;;4.85;2.92;;;24.90;99.90;;;;;;1913256;73;21250;-73
2021/10/15 01:39:21;;;;;;;4.33;2.37;;;24.90;99.90;;;;;;1894261;74;21164;-73
2021/10/15 01:41:52;;;;;;;5.58;2.67;;;25.00;99.90;;;;;;1906173;74;21171;-73
2021/10/15 01:44:23;;;;;;;3.58;2.65;;;25.00;99.90;;;;;;1906244;74;21172;-73
2021/10/15 01:46:54;;;;;;;7.35;3.77;;;25.00;99.90;;;;;;1896204;74;21108;-73
2021/10/15 01:49:25;;;;;;;5.67;3.92;;;25.00;99.90;;;;;;1916074;73;21235;-73
2021/10/15 01:51:55;;;;;;;4.45;2.90;;;25.10;99.90;;;;;;1902320;74;21623;-73
2021/10/15 01:54:26;;;;;;;5.15;2.72;;;25.20;99.90;;;;;;1905500;74;21114;-73
2021/10/15 01:56:57;;;;;;;6.58;3.35;;;25.20;99.90;;;;;;1915978;74;21646;-72
2021/10/15 01:59:28;;;;;;;10.00;4.78;;;25.30;99.90;;;;;;1909251;74;21208;-73
2021/10/15 02:02:00;;;;;;;5.40;3.22;;;25.30;99.90;;;;;;1930848;73;21150;-73
2021/10/15 02:04:31;;;;;;;5.97;3.98;;;25.30;99.90;;;;;;1913835;74;21428;-73
2021/10/15 02:07:02;;;;;;;6.97;3.50;;;25.40;99.90;;;;;;1939784;73;21094;-74
2021/10/15 02:09:34;;;;;;;6.10;3.52;;;25.30;99.90;;;;;;1905992;73;21147;-74
2021/10/15 02:12:08;;;;;;;5.12;3.15;;;25.40;99.90;;;;;;1870885;74;21047;-73
2021/10/15 02:14:39;;;;;;;6.87;3.90;;;25.40;99.90;;;;;;1900513;73;21217;-73
2021/10/15 02:17:10;;;;;;;4.83;3.45;;;25.50;99.90;;;;;;1919296;73;21691;-74
2021/10/15 02:19:40;;;;;;;6.78;3.47;;;25.50;99.90;;;;;;1932566;73;21075;-73
2021/10/15 02:22:11;;;;;;;8.50;5.90;;;25.50;99.90;;;;;;1934170;73;21208;-73
2021/10/15 02:24:43;;;;;;;4.80;3.50;;;25.50;99.90;;;;;;1925405;73;21173;-73
2021/10/15 02:27:13;;;;;;;4.20;3.27;;;25.50;99.90;;;;;;1920608;73;21703;-73
2021/10/15 02:29:47;;;;;;;8.15;3.65;;;25.50;99.90;;;;;;1923154;73;21173;-74
2021/10/15 02:32:18;;;;;;;11.43;3.42;;;25.50;99.90;;;;;;1918566;73;21650;-73
2021/10/15 02:34:48;;;;;;;5.05;3.10;;;25.50;99.90;;;;;;1925155;73;21245;-74
2021/10/15 02:37:19;;;;;;;4.70;2.77;;;25.50;99.90;;;;;;1939705;73;21169;-75
2021/10/15 02:39:49;;;;;;;4.47;2.83;;;25.40;99.90;;;;;;1912451;73;21154;-74
2021/10/15 02:42:20;;;;;;;4.58;2.92;;;25.50;99.90;;;;;;1898083;74;21216;-73
2021/10/15 02:44:51;;;;;;;4.45;3.00;;;25.50;99.90;;;;;;1893859;74;21138;-72
2021/10/15 02:47:23;;;;;;;4.25;3.10;;;25.40;99.90;;;;;;1922861;73;21675;-71
2021/10/15 02:49:54;;;;;;;5.70;4.40;;;25.40;99.90;;;;;;1883359;74;21227;-72
2021/10/15 02:52:25;;;;;;;10.30;5.60;;;25.50;99.90;;;;;;1918349;73;21250;-72
2021/10/15 02:54:56;;;;;;;4.65;3.45;;;25.50;99.90;;;;;;1915219;74;21665;-72
2021/10/15 02:57:26;;;;;;;5.08;3.70;;;25.40;99.90;;;;;;1896088;73;21192;-72
2021/10/15 02:59:57;;;;;;;6.92;3.95;;;25.50;99.90;;;;;;1917358;73;21181;-73
2021/10/15 03:02:28;;;;;;;4.83;3.37;;;25.40;99.90;;;;;;1901328;73;21752;-73
2021/10/15 03:04:59;;;;;;;6.55;4.53;;;25.50;99.90;;;;;;1913676;74;21539;-73
2021/10/15 03:07:30;;;;;;;4.50;3.58;;;25.50;99.90;;;;;;1898309;73;21140;-72
2021/10/15 03:10:01;;;;;;;5.55;3.83;;;25.40;99.90;;;;;;1904626;74;21598;-73
2021/10/15 03:12:32;;;;;;;7.22;4.30;;;25.50;99.90;;;;;;1887153;74;21159;-73
2021/10/15 03:15:03;;;;;;;9.28;4.75;;;25.50;99.90;;;;;;1941747;73;21173;-73
2021/10/15 03:17:34;;;;;;;4.40;3.47;;;25.50;99.90;;;;;;1902261;73;21744;-72
2021/10/15 03:20:06;;;;;;;5.55;4.05;;;25.50;99.90;;;;;;1911838;73;21186;-73
2021/10/15 03:22:36;;;;;;;5.05;4.10;;;25.50;99.90;;;;;;1909651;73;21284;-73
2021/10/15 03:25:08;;;;;;;5.67;3.77;;;25.50;99.90;;;;;;1913698;72;21213;-73
2021/10/15 03:27:38;;;;;;;4.97;3.52;;;25.50;99.90;;;;;;1893124;72;21137;-73
2021/10/15 03:30:11;;;;;;;6.65;3.83;;;25.50;99.90;;;;;;1901795;73;21136;-73
2021/10/15 03:32:42;;;;;;;6.53;3.80;;;25.50;99.90;;;;;;1901609;74;21626;-73
2021/10/15 03:35:12;;;;;;;5.28;3.50;;;25.50;99.90;;;;;;1899882;73;21207;-73
2021/10/15 03:37:43;;;;;;;5.37;3.85;;;25.50;99.90;;;;;;1923198;73;21669;-72
2021/10/15 03:40:15;;;;;;;4.40;3.90;;;25.60;99.90;;;;;;1907531;73;21495;-73
2021/10/15 03:42:46;;;;;;;6.28;4.15;;;25.60;99.90;;;;;;1902426;74;21087;-73
2021/10/15 03:45:16;;;;;;;5.80;3.60;;;25.60;99.90;;;;;;1895702;74;21139;-72
2021/10/15 03:47:47;;;;;;;4.28;3.27;;;25.70;99.90;;;;;;1897914;74;21166;-72
2021/10/15 03:50:18;;;;;;;5.28;3.50;;;25.70;99.90;;;;;;1902973;74;21286;-73
2021/10/15 03:52:49;;;;;;;4.45;3.67;;;25.70;99.90;;;;;;1873821;74;21154;-73
2021/10/15 03:55:20;;;;;;;5.62;3.47;;;25.70;99.90;;;;;;1879717;74;21779;-73
2021/10/15 03:57:51;;;;;;;6.20;3.62;;;25.70;99.90;;;;;;1897317;74;21686;-73
2021/10/15 04:00:21;;;;;;;4.53;3.55;;;25.70;99.90;;;;;;1904908;74;21094;-73
2021/10/15 04:02:52;;;;;;;5.10;3.20;;;25.70;99.90;;;;;;1931257;73;21094;-72
2021/10/15 04:05:24;;;;;;;6.00;3.15;;;25.70;99.90;;;;;;1918388;73;21144;-72
2021/10/15 04:07:55;;;;;;;5.28;3.58;;;25.70;99.90;;;;;;1911387;72;21126;-73
2021/10/15 04:10:26;;;;;;;5.42;3.65;;;25.70;99.90;;;;;;1907740;74;21199;-73
2021/10/15 04:12:57;;;;;;;5.08;3.77;;;25.70;99.90;;;;;;1892181;74;21205;-73
2021/10/15 04:15:28;;;;;;;5.22;4.05;;;25.80;99.90;;;;;;1902025;73;21211;-75
2021/10/15 04:17:58;;;;;;;5.62;4.40;;;25.70;99.90;;;;;;1934199;73;21672;-73
2021/10/15 04:20:29;;;;;;;5.75;4.37;;;25.70;99.90;;;;;;1926068;73;21157;-74
2021/10/15 04:23:00;;;;;;;7.08;4.42;;;25.70;99.90;;;;;;1868271;74;21439;-73
2021/10/15 04:25:31;;;;;;;6.15;4.40;;;25.70;99.90;;;;;;1923631;72;21190;-73
2021/10/15 04:28:02;;;;;;;7.62;4.65;;;25.70;99.90;;;;;;1870752;75;21086;-73
2021/10/15 04:30:33;;;;;;;6.62;4.42;;;25.80;99.90;;;;;;1894424;73;21232;-72
2021/10/15 04:33:04;;;;;;;5.97;4.72;;;25.80;99.90;;;;;;1916328;73;21611;-73
2021/10/15 04:35:35;;;;;;;5.55;4.20;;;25.80;99.90;;;;;;1826312;75;21594;-72
2021/10/15 04:38:05;;;;;;;5.80;4.50;;;25.80;99.90;;;;;;1869962;74;21725;-73
2021/10/15 04:40:36;;;;;;;7.03;4.83;;;25.80;99.90;;;;;;1908437;74;21163;-72
2021/10/15 04:43:08;;;;;;;5.67;4.67;;;25.80;99.90;;;;;;1913425;74;21657;-72
2021/10/15 04:45:39;;;;;;;7.10;4.05;;;25.80;99.90;;;;;;1906446;73;21172;-72
2021/10/15 04:48:10;;;;;;;6.15;4.45;;;25.80;99.90;;;;;;1914130;73;21684;-72
2021/10/15 04:50:41;;;;;;;6.12;4.45;;;25.80;99.90;;;;;;1928611;73;21130;-73
2021/10/15 04:53:13;;;;;;;4.92;4.35;;;25.80;99.90;;;;;;1896078;74;21683;-72
2021/10/15 04:55:44;;;;;;;8.30;5.47;;;25.80;99.90;;;;;;1902196;73;21641;-72
2021/10/15 04:58:14;;;;;;;7.25;4.75;;;25.80;99.90;;;;;;1920155;73;21615;-72
2021/10/15 05:00:46;;;;;;;6.45;5.10;;;25.80;99.90;;;;;;1916851;73;21151;-72
2021/10/15 05:03:20;;;;;;;9.85;5.85;;;25.80;99.90;;;;;;1923995;73;21131;-72
2021/10/15 05:05:51;;;;;;;5.95;5.10;;;25.80;99.90;;;;;;1918535;73;21722;-72
2021/10/15 05:08:28;;;;;;;7.87;5.17;;;25.80;99.90;;;;;;1914337;73;21591;-72
2021/10/15 05:10:54;;;;;;;7.55;4.47;;;25.80;99.90;;;;;;1886978;74;21196;-72
2021/10/15 05:13:25;;;;;;;6.78;4.35;;;25.80;99.90;;;;;;1887097;74;21104;-72
2021/10/15 05:15:55;;;;;;;9.30;5.37;;;25.80;99.90;;;;;;1902309;73;21211;-72
2021/10/15 05:18:26;;;;;;;7.60;4.72;;;25.80;99.90;;;;;;1929579;73;21182;-72
2021/10/15 05:20:58;;;;;;;6.65;4.90;;;25.80;99.90;;;;;;1912578;73;21125;-72
2021/10/15 05:23:29;;;;;;;4.55;4.15;;;25.90;99.90;;;;;;1934170;73;21191;-72
2021/10/15 05:26:00;;;;;;;6.78;4.78;;;25.90;99.90;;;;;;1917906;73;21200;-70
2021/10/15 05:28:30;;;;;;;9.13;5.22;;;26.00;99.90;;;;;;1937238;73;21217;-71
2021/10/15 05:31:01;;;;;;;6.42;4.78;;;26.10;99.90;;;;;;1877923;74;21182;-72
2021/10/15 05:33:32;;;;;;;5.35;4.72;;;26.20;99.90;;;;;;1881452;74;21115;-72
2021/10/15 05:36:03;;;;;;;5.35;4.70;;;26.20;99.90;;;;;;1906023;74;21152;-72
2021/10/15 05:38:33;;;;;;;4.75;4.30;;;26.20;99.90;;;;;;1940024;73;21110;-72
2021/10/15 05:41:04;;;;;;;5.28;4.35;;;26.20;99.90;;;;;;1925500;73;21625;-73
2021/10/15 05:43:35;;;;;;;7.10;4.55;;;26.20;99.90;;;;;;1900825;73;21606;-72
2021/10/15 05:46:06;;;;;;;6.75;5.53;;;26.30;99.90;;;;;;1931437;73;21215;-72
2021/10/15 05:48:37;;;;;;;7.30;5.70;;;26.40;99.90;;;;;;1898679;72;21212;-72
2021/10/15 05:51:09;;;;;;;6.90;5.33;;;26.40;99.90;;;;;;1896082;73;21119;-73
2021/10/15 05:53:40;;;;;;;9.30;6.05;;;26.40;99.90;;;;;;1924687;73;21734;-72
2021/10/15 06:01:15;;;;;;;7.65;5.00;;;26.50;99.90;;;;;;1907760;73;21191;-71
2021/10/15 06:03:54;;;;;;;9.20;5.42;;;26.50;99.90;;;;;;1904639;74;21242;-72
2021/10/15 06:16:29;;;;;;;9.00;5.00;;;26.60;99.90;;;;;;1911484;73;21144;-72
2021/10/15 06:19:11;;;;;;;6.37;5.35;;;26.60;99.90;;;;;;1902145;73;21106;-72
2021/10/15 06:21:36;;;;;;;6.47;4.83;;;26.60;99.90;;;;;;1875709;73;21219;-72
2021/10/15 06:24:07;;;;;;;6.12;4.90;;;26.60;99.90;;;;;;1895282;74;21171;-71
2021/10/15 06:26:38;;;;;;;8.73;5.70;;;26.70;99.90;;;;;;1922997;73;21204;-71
2021/10/15 06:29:09;;;;;;;6.50;4.97;;;26.70;99.90;;;;;;1885735;74;21225;-72
2021/10/15 06:31:41;;;;;;;10.65;5.20;;;26.80;99.90;;;;;;1903820;74;21102;-72
2021/10/15 06:34:12;;;;;;;9.08;4.87;;;26.90;99.90;;;;;;1911868;73;21138;-72
2021/10/15 06:36:43;;;;;;;6.37;5.20;;;27.10;99.90;;;;;;1913710;74;21717;-73
2021/10/15 06:39:16;;;;;;;6.87;5.17;;;27.20;99.90;;;;;;1897579;73;21124;-73
2021/10/15 06:41:46;;;;;;;8.13;5.40;;;27.30;99.90;;;;;;1907700;73;21130;-73
2021/10/15 06:44:17;;;;;;;6.55;5.42;;;27.30;99.90;;;;;;1890781;74;21555;-72
2021/10/15 06:46:49;;;;;;;5.72;4.53;;;27.30;99.90;;;;;;1930969;73;21212;-73
2021/10/15 06:49:20;;;;;;;6.70;5.10;;;27.30;99.90;;;;;;1905272;72;21200;-73
2021/10/15 06:51:51;;;;;;;7.08;5.42;;;27.30;99.90;;;;;;1902322;73;21133;-72
2021/10/15 06:54:22;;;;;;;5.87;5.17;;;27.30;99.90;;;;;;1895424;74;21161;-72
2021/10/15 06:56:53;;;;;;;7.85;5.45;;;27.30;99.90;;;;;;1894640;74;21122;-73
2021/10/15 06:59:23;;;;;;;5.33;4.70;;;27.30;99.90;;;;;;1867452;74;21134;-71
2021/10/15 07:01:55;;;;;;;6.85;5.15;;;27.30;99.90;;;;;;1904145;74;21571;-72
2021/10/15 07:04:26;;;;;;;5.78;4.67;;;27.30;99.90;;;;;;1903529;73;21184;-72
2021/10/15 07:06:58;;;;;;;5.83;5.08;;;27.40;99.90;;;;;;1903023;74;21105;-72
2021/10/15 07:09:29;;;;;;;6.45;5.00;;;27.50;99.90;;;;;;1892260;75;21548;-72
2021/10/15 07:11:59;;;;;;;5.10;4.58;;;27.60;99.90;;;;;;1903415;73;21622;-72
2021/10/15 07:14:30;;;;;;;7.42;6.55;;;27.60;99.90;;;;;;1923953;73;21133;-72
2021/10/15 07:17:01;;;;;;;5.60;4.90;;;27.60;99.90;;;;;;1909655;74;21208;-72
2021/10/15 07:19:32;;;;;;;5.30;4.67;;;27.60;99.90;;;;;;1909533;73;21104;-72
2021/10/15 07:22:02;;;;;;;8.53;4.90;;;27.60;99.90;;;;;;1914906;73;21194;-73
2021/10/15 07:24:33;;;;;;;7.45;4.55;;;27.60;99.90;;;;;;1924632;73;21139;-72
2021/10/15 07:27:04;;;;;;;6.12;4.67;;;27.60;99.90;;;;;;1904658;73;21180;-72
2021/10/15 07:29:35;;;;;;;6.95;5.47;;;27.60;99.90;;;;;;1856580;75;21136;-72
2021/10/15 07:32:06;;;;;;;6.92;4.90;;;27.60;99.90;;;;;;1915764;73;21182;-71
2021/10/15 07:34:38;;;;;;;10.20;6.33;;;27.60;99.90;;;;;;1913400;73;21087;-72
2021/10/15 07:37:09;;;;;;;11.25;7.03;;;27.70;99.90;;;;;;1925228;73;21190;-73
2021/10/15 07:39:40;;;;;;;5.85;4.78;;;27.70;99.90;;;;;;1908954;73;21263;-72
2021/10/15 07:42:10;;;;;;;7.10;5.05;;;27.80;99.90;;;;;;1903216;73;21471;-71
2021/10/15 07:44:42;;;;;;;5.42;4.37;;;27.80;99.90;;;;;;1875112;74;21094;-72
2021/10/15 07:47:13;;;;;;;7.62;4.65;;;27.90;99.90;;;;;;1895927;74;21175;-73
2021/10/15 07:49:44;;;;;;;5.20;4.35;;;27.90;99.90;;;;;;1862964;75;21271;-72
2021/10/15 07:52:14;;;;;;;8.80;4.62;;;27.90;99.90;;;;;;1879014;74;21138;-72
2021/10/15 07:54:45;;;;;;;5.58;4.53;;;27.90;99.90;;;;;;1922158;74;21680;-72
2021/10/15 07:57:16;;;;;;;5.35;4.75;;;27.90;99.90;;;;;;1932274;73;21125;-72
2021/10/15 07:59:47;;;;;;;5.47;4.28;;;27.90;99.90;;;;;;1892092;74;21171;-74
2021/10/15 08:02:18;;;;;;;7.20;4.62;;;27.90;99.90;;;;;;1884741;74;21252;-73
2021/10/15 08:04:49;;;;;;;7.65;5.00;;;27.90;99.90;;;;;;1913038;73;22287;-73
2021/10/15 08:07:20;;;;;;;8.70;5.22;;;27.90;99.90;;;;;;1863343;74;21169;-72
2021/10/15 08:09:51;;;;;;;4.95;4.37;;;27.90;99.90;;;;;;1895988;73;21185;-73
2021/10/15 08:12:22;;;;;;;6.12;4.85;;;27.90;99.90;;;;;;1900121;73;21146;-71
2021/10/15 08:14:53;;;;;;;6.83;4.72;;;27.90;99.90;;;;;;1922909;73;21177;-72
2021/10/15 08:17:25;;;;;;;7.17;5.03;;;27.80;99.90;;;;;;1916629;73;21146;-71
2021/10/15 08:19:56;;;;;;;7.67;6.30;;;27.80;99.90;;;;;;1924827;73;21110;-72
2021/10/15 08:22:27;;;;;;;7.97;6.00;;;27.70;99.90;;;;;;1933525;73;21189;-73
2021/10/15 08:25:00;;;;;;;17.98;5.72;;;27.80;99.90;;;;;;1917053;74;21122;-71
2021/10/15 08:27:31;;;;;;;7.62;5.05;;;27.80;99.90;;;;;;1905622;74;21560;-72
2021/10/15 08:30:02;;;;;;;6.03;4.83;;;27.80;99.90;;;;;;1907216;73;21075;-72
2021/10/15 08:32:33;;;;;;;6.97;4.50;;;27.80;99.90;;;;;;1918362;73;21150;-72
2021/10/15 08:35:05;;;;;;;9.68;5.22;;;27.80;99.90;;;;;;1888646;73;21074;-71
2021/10/15 08:37:37;;;;;;;6.33;4.30;;;27.80;99.90;;;;;;1886144;73;21734;-72
2021/10/15 08:40:10;;;;;;;6.90;4.90;;;27.80;99.90;;;;;;1872109;75;21230;-73
2021/10/15 08:42:42;;;;;;;5.10;4.50;;;27.80;99.90;;;;;;1927189;73;21319;-72
2021/10/15 08:45:14;;;;;;;4.80;4.30;;;27.80;99.90;;;;;;1904495;74;21064;-72
2021/10/15 08:47:47;;;;;;;5.95;4.78;;;27.80;99.90;;;;;;1923102;73;21551;-73
2021/10/15 08:50:20;;;;;;;7.30;4.85;;;27.80;99.90;;;;;;1909170;73;21166;-71
2021/10/15 08:52:51;;;;;;;8.18;4.42;;;27.80;99.90;;;;;;1872824;74;21178;-71
2021/10/15 08:55:22;;;;;;;7.10;5.17;;;27.70;99.90;;;;;;1875289;76;21155;-72
2021/10/15 08:57:56;;;;;;;7.10;4.62;;;27.70;99.90;;;;;;1893577;74;21082;-72
2021/10/15 09:00:30;;;;;;;8.30;5.65;;;27.70;99.90;;;;;;1883990;75;21093;-71
2021/10/15 09:03:04;;;;;;;7.75;4.85;;;27.60;99.90;;;;;;1889563;74;21216;-72
2021/10/15 09:05:36;;;;;;;4.83;4.15;;;27.60;99.90;;;;;;1916886;73;21224;-70
2021/10/15 09:08:07;;;;;;;8.05;4.65;;;27.60;99.90;;;;;;1901452;74;21233;-71
2021/10/15 09:10:39;;;;;;;5.85;5.25;;;27.60;99.90;;;;;;1865239;76;21113;-72
2021/10/15 09:13:20;;;;;;;7.70;4.42;;;27.50;99.90;;;;;;1908517;74;21158;-72
2021/10/15 09:15:47;;;;;;;7.55;4.28;;;27.50;99.90;;;;;;1894870;73;21207;-72
2021/10/15 09:18:28;;;;;;;6.55;4.85;;;27.50;99.90;;;;;;1921146;73;21669;-73
2021/10/15 09:20:54;;;;;;;7.05;4.95;;;27.50;99.90;;;;;;1919924;73;21158;-72
2021/10/15 09:23:27;;;;;;;6.37;4.87;;;27.40;99.90;;;;;;1864395;74;21675;-72
2021/10/15 09:26:00;;;;;;;8.00;4.92;;;27.40;99.90;;;;;;1865703;75;21117;-72
2021/10/15 09:28:34;;;;;;;8.35;5.70;;;27.40;99.90;;;;;;1886392;74;21696;-72
2021/10/15 09:31:10;;;;;;;5.45;4.65;;;27.40;99.90;;;;;;1908377;73;21567;-71
2021/10/15 09:33:52;;;;;;;5.42;4.53;;;27.40;99.90;;;;;;1872210;75;21658;-72
2021/10/15 09:36:23;;;;;;;5.05;4.40;;;27.30;99.90;;;;;;1867027;74;21573;-71
2021/10/15 09:38:54;;;;;;;6.53;5.12;;;27.30;99.90;;;;;;1876088;74;21111;-71
2021/10/15 09:41:27;;;;;;;5.60;4.83;;;27.30;99.90;;;;;;1879098;76;21174;-72
2021/10/15 09:43:58;;;;;;;7.10;4.25;;;27.30;99.90;;;;;;1888179;74;21136;-72
2021/10/15 09:46:29;;;;;;;7.62;5.37;;;27.30;99.90;;;;;;1893734;73;21147;-72
2021/10/15 09:49:00;;;;;;;8.33;5.22;;;27.30;99.90;;;;;;1881285;75;21264;-72
2021/10/15 09:51:31;;;;;;;8.78;5.58;;;27.20;99.90;;;;;;1896280;73;21085;-72
2021/10/15 09:54:04;;;;;;;6.80;4.90;;;27.20;99.90;;;;;;1894796;74;21272;-72
2021/10/15 09:56:37;;;;;;;8.65;5.47;;;27.20;99.90;;;;;;1883205;74;21654;-72
2021/10/15 09:59:09;;;;;;;9.25;5.72;;;27.10;99.90;;;;;;1933824;73;21665;-72
2021/10/15 10:01:43;;;;;;;13.13;7.22;;;27.20;99.90;;;;;;1897859;74;21194;-72
2021/10/15 10:04:14;;;;;;;16.40;9.05;;;27.10;99.90;;;;;;1914386;72;21207;-72
2021/10/15 10:06:45;;;;;;;14.70;8.30;;;27.10;99.90;;;;;;1857008;75;21597;-72
2021/10/15 10:09:16;;;;;;;15.35;7.97;;;27.10;99.90;;;;;;1864715;75;21165;-72
2021/10/15 10:11:47;;;;;;;12.00;5.55;;;27.00;99.90;;;;;;1913575;72;21203;-72
2021/10/15 10:14:18;;;;;;;7.20;2.72;;;27.00;99.90;;;;;;1913926;73;21701;-72
2021/10/15 10:16:51;;;;;;;8.40;2.10;;;26.90;99.90;;;;;;1882070;74;21128;-73
2021/10/15 10:19:24;;;;;;;8.78;2.02;;;26.60;99.90;;;;;;1869480;74;21709;-73
2021/10/15 10:21:55;;;;;;;6.28;2.02;;;26.40;99.90;;;;;;1900202;73;21156;-73
2021/10/15 10:24:30;;;;;;;4.50;1.62;;;26.20;99.90;;;;;;1903397;73;21605;-73
2021/10/15 10:27:01;;;;;;;7.47;1.80;;;25.90;99.90;;;;;;1888944;74;21142;-73
2021/10/15 10:29:34;;;;;;;8.98;2.40;;;25.70;99.90;;;;;;1889607;74;21820;-72
2021/10/15 10:32:07;;;;;;;5.60;1.80;;;25.60;99.90;;;;;;1888707;74;21243;-71
2021/10/15 10:34:38;;;;;;;3.92;1.65;;;25.40;99.90;;;;;;1894661;73;22014;-71
2021/10/15 10:37:12;;;;;;;5.80;1.95;;;25.40;99.90;;;;;;1889481;73;21615;-72
2021/10/15 10:39:44;;;;;;;8.00;2.42;;;25.30;99.90;;;;;;1907357;72;21114;-72
2021/10/15 10:42:20;;;;;;;5.20;1.70;;;25.30;99.90;;;;;;1920531;74;21243;-73
2021/10/15 10:44:52;;;;;;;5.20;2.00;;;25.30;99.90;;;;;;1898934;74;21722;-72
2021/10/15 10:47:25;;;;;;;6.37;1.65;;;25.30;99.90;;;;;;1863844;74;21118;-72
2021/10/15 10:49:58;;;;;;;5.10;1.57;;;25.20;99.90;;;;;;1887494;74;21135;-72
2021/10/15 10:52:29;;;;;;;5.15;1.95;;;25.20;99.90;;;;;;1905433;73;21189;-72
2021/10/15 10:55:00;;;;;;;6.53;2.10;;;25.20;99.90;;;;;;1937217;73;21176;-72
2021/10/15 10:57:33;;;;;;;5.78;1.55;;;25.20;99.90;;;;;;1896111;74;21266;-72
2021/10/15 11:00:06;;;;;;;6.28;1.50;;;25.20;99.90;;;;;;1938474;73;21113;-72
2021/10/15 11:02:39;;;;;;;6.65;1.67;;;25.20;99.90;;;;;;1916525;73;21586;-72
2021/10/15 11:05:11;;;;;;;4.67;1.25;;;25.10;99.90;;;;;;1939696;73;21109;-72
2021/10/15 11:07:42;;;;;;;3.45;1.30;;;25.10;99.90;;;;;;1916158;72;21185;-72
2021/10/15 11:10:15;;;;;;;3.35;0.93;;;25.00;99.90;;;;;;1901032;73;21288;-72
2021/10/15 11:12:49;;;;;;;5.17;1.67;;;25.00;99.90;;;;;;1890797;73;21676;-72
2021/10/15 11:15:19;;;;;;;3.25;1.20;;;25.00;99.90;;;;;;1940106;73;21205;-72
2021/10/15 11:17:50;;;;;;;3.33;0.98;;;25.00;99.90;;;;;;1895798;72;21219;-73
2021/10/15 11:20:23;;;;;;;6.58;1.10;;;25.00;99.90;;;;;;1923759;73;21599;-73
2021/10/15 11:22:57;;;;;;;3.20;0.80;;;25.00;99.90;;;;;;1926664;73;21155;-72
2021/10/15 11:25:30;;;;;;;3.60;1.05;;;25.00;99.90;;;;;;1911521;73;21729;-73
2021/10/15 11:28:03;;;;;;;3.22;0.80;;;25.00;99.90;;;;;;1932671;72;21157;-73
2021/10/15 11:30:37;;;;;;;4.62;1.00;;;25.00;99.90;;;;;;1880453;73;21165;-74
2021/10/15 11:33:10;;;;;;;3.67;1.30;;;25.00;99.90;;;;;;1904534;73;21148;-72
2021/10/15 11:35:44;;;;;;;3.95;1.30;;;25.00;99.90;;;;;;1902646;73;21683;-72
2021/10/15 11:38:20;;;;;;;3.50;1.45;;;25.00;99.90;;;;;;1923411;73;21861;-73
2021/10/15 11:40:52;;;;;;;2.52;1.00;;;25.00;99.90;;;;;;1900900;73;21202;-73
2021/10/15 11:43:25;;;;;;;4.35;1.30;;;25.00;99.90;;;;;;1861150;74;21159;-73
2021/10/15 11:45:58;;;;;;;3.02;1.50;;;25.00;99.90;;;;;;1892038;73;21236;-72
2021/10/15 11:48:34;;;;;;;3.55;1.65;;;25.00;99.90;;;;;;1919643;73;21188;-72
2021/10/15 11:51:06;;;;;;;4.20;1.77;;;25.00;99.90;;;;;;1911041;74;21155;-72
2021/10/15 11:53:40;;;;;;;4.87;1.95;;;25.00;99.90;;;;;;1880593;74;21224;-72
2021/10/15 11:56:13;;;;;;;4.12;2.10;;;25.10;99.90;;;;;;1900093;74;21135;-75
2021/10/15 11:58:46;;;;;;;4.65;2.20;;;25.10;99.90;;;;;;1879031;74;21126;-75
2021/10/15 12:01:19;;;;;;;5.58;2.67;;;25.10;99.90;;;;;;1895494;74;21263;-76
2021/10/15 12:03:54;;;;;;;4.67;2.42;;;25.10;99.90;;;;;;1907919;74;21213;-80
2021/10/15 12:06:28;;;;;;;5.85;2.58;;;25.10;99.90;;;;;;1868734;75;21191;-80
2021/10/15 12:09:03;;;;;;;4.20;2.85;;;25.10;99.90;;;;;;1920289;72;21177;-79
2021/10/15 12:11:40;;;;;;;5.53;2.80;;;25.10;99.90;;;;;;1923133;73;21569;-80
2021/10/15 12:14:11;;;;;;;5.80;3.00;;;25.20;99.90;;;;;;1916694;73;21151;-80
2021/10/15 12:16:44;;;;;;;5.78;2.00;;;25.20;99.90;;;;;;1863931;75;21156;-80
2021/10/15 12:19:18;;;;;;;4.30;1.80;;;25.20;99.90;;;;;;1877381;74;21124;-80
2021/10/15 12:21:51;;;;;;;4.35;1.90;;;25.20;99.90;;;;;;1930274;73;21276;-80
2021/10/15 12:24:24;;;;;;;3.15;1.02;;;25.20;99.90;;;;;;1944060;73;21635;-79
2021/10/15 12:26:57;;;;;;;3.75;1.60;;;25.20;99.90;;;;;;1921264;73;21227;-80
2021/10/15 12:29:30;;;;;;;2.52;1.40;;;25.30;99.90;;;;;;1858785;75;21197;-80
2021/10/15 12:32:04;;;;;;;2.08;1.20;;;25.20;99.90;;;;;;1910639;74;21177;-80
2021/10/15 12:34:37;;;;;;;2.77;1.15;;;25.30;99.90;;;;;;1920895;74;21231;-80
2021/10/15 12:37:09;;;;;;;3.12;2.33;;;25.30;99.90;;;;;;1917836;73;21126;-80
2021/10/15 12:39:40;;;;;;;2.30;1.32;;;25.30;99.90;;;;;;1927999;73;21174;-80
2021/10/15 12:42:13;;;;;;;4.10;1.42;;;25.30;99.90;;;;;;1924753;73;21111;-80
2021/10/15 12:44:43;;;;;;;4.30;1.30;;;25.30;99.90;;;;;;1896841;74;21726;-80
2021/10/15 12:47:17;;;;;;;2.65;1.40;;;25.30;99.90;;;;;;1919312;73;21090;-80
2021/10/15 12:49:50;;;;;;;2.40;1.20;;;25.30;99.90;;;;;;1918084;73;21165;-80
2021/10/15 12:52:23;;;;;;;2.58;1.30;;;25.30;99.90;;;;;;1939693;73;21684;-80
2021/10/15 12:54:54;;;;;;;2.80;1.25;;;25.20;99.90;;;;;;1903833;74;21607;-81
2021/10/15 12:57:28;;;;;;;4.80;1.52;;;25.30;99.90;;;;;;1912540;73;21162;-79
2021/10/15 13:00:01;;;;;;;3.30;1.47;;;25.30;99.90;;;;;;1893380;73;21240;-81
2021/10/15 13:02:32;;;;;;;4.20;1.82;;;25.30;99.90;;;;;;1903201;74;21653;-80
2021/10/15 13:05:05;;;;;;;3.95;2.08;;;25.30;99.90;;;;;;1937784;72;21925;-80
2021/10/15 13:07:37;;;;;;;3.15;1.90;;;25.30;99.90;;;;;;1917144;73;21673;-80
2021/10/15 13:10:10;;;;;;;2.40;1.67;;;25.30;99.90;;;;;;1887205;74;21188;-80
2021/10/15 13:12:41;;;;;;;2.75;1.62;;;25.30;99.90;;;;;;1898081;73;21095;-80
2021/10/15 13:15:13;;;;;;;4.03;1.70;;;25.30;99.90;;;;;;1919198;73;21606;-81
2021/10/15 13:17:44;;;;;;;5.17;1.95;;;25.30;99.90;;;;;;1911292;73;21209;-79
2021/10/15 13:20:16;;;;;;;2.95;1.60;;;25.30;99.90;;;;;;1887552;74;21178;-79
2021/10/15 13:22:46;;;;;;;2.65;1.50;;;25.20;99.90;;;;;;1885737;74;21127;-79